createdAt,value
2023-02-24T00:02:59.304Z,2.91
2023-02-24T00:06:03.582Z,2.95
2023-02-24T00:09:06.928Z,2.90
2023-02-24T00:12:10.739Z,2.84
2023-02-24T00:15:15.221Z,2.83
2023-02-24T00:18:17.058Z,2.93
2023-02-24T00:21:19.367Z,2.94
2023-02-24T00:24:21.777Z,2.94
2023-02-24T00:27:23.550Z,2.94
2023-02-24T00:30:28.434Z,2.95
2023-02-24T00:33:30.983Z,2.99
2023-02-24T00:36:34.101Z,3.02
2023-02-24T00:39:36.589Z,2.97
2023-02-24T00:42:39.970Z,2.90
2023-02-24T00:45:43.310Z,2.87
2023-02-24T00:48:45.981Z,2.80
2023-02-24T00:51:48.855Z,2.71
2023-02-24T00:54:51.271Z,2.70
2023-02-24T00:57:52.932Z,2.63
2023-02-24T01:00:56.334Z,2.59
2023-02-24T01:03:58.765Z,2.62
2023-02-24T01:07:00.710Z,2.67
2023-02-24T01:10:02.436Z,2.68
2023-02-24T01:13:04.322Z,2.62
2023-02-24T01:16:07.736Z,2.61
2023-02-24T01:22:29.900Z,2.75
2023-02-24T01:25:31.798Z,2.75
2023-02-24T01:28:33.436Z,2.72
2023-02-24T01:31:38.754Z,2.69
2023-02-24T01:34:43.443Z,2.75
2023-02-24T01:37:45.794Z,2.77
2023-02-24T01:40:55.238Z,2.74
2023-02-24T01:43:58.991Z,2.64
2023-02-24T01:47:04.082Z,2.59
2023-02-24T01:50:06.181Z,2.64
2023-02-24T01:53:08.696Z,2.68
2023-02-24T01:56:13.689Z,2.66
2023-02-24T01:59:16.241Z,2.60
2023-02-24T02:02:19.999Z,2.59
2023-02-24T02:05:22.660Z,2.57
2023-02-24T02:08:24.858Z,2.60
2023-02-24T02:11:28.458Z,2.57
2023-02-24T02:14:31.196Z,2.56
2023-02-24T02:17:37.477Z,2.65
2023-02-24T02:21:09.239Z,2.65
2023-02-24T02:24:20.873Z,2.64
2023-02-24T02:27:33.751Z,2.63
2023-02-24T02:30:43.969Z,2.64
2023-02-24T02:34:01.647Z,2.70
2023-02-24T02:37:09.959Z,2.69
2023-02-24T02:40:21.781Z,2.60
2023-02-24T02:43:27.500Z,2.58
2023-02-24T02:46:35.417Z,2.59
2023-02-24T02:49:41.863Z,2.53
2023-02-24T02:52:47.611Z,2.53
2023-02-24T02:55:53.562Z,2.48
2023-02-24T02:58:56.703Z,2.49
2023-02-24T03:02:11.438Z,2.50
2023-02-24T03:05:20.256Z,2.48
2023-02-24T03:08:25.804Z,2.43
2023-02-24T03:11:27.690Z,2.44
2023-02-24T03:14:33.349Z,2.46
2023-02-24T03:17:41.337Z,2.45
2023-02-24T03:20:47.479Z,2.41
2023-02-24T03:23:50.668Z,2.39
2023-02-24T03:26:59.843Z,2.41
2023-02-24T03:30:07.217Z,2.38
2023-02-24T03:33:11.771Z,2.30
2023-02-24T03:36:15.426Z,2.31
2023-02-24T03:39:17.116Z,2.31
2023-02-24T03:42:42.097Z,2.29
2023-02-24T03:45:43.877Z,2.27
2023-02-24T03:48:47.995Z,2.24
2023-02-24T03:51:57.065Z,2.22
2023-02-24T03:55:15.280Z,2.20
2023-02-24T03:58:18.730Z,2.21
2023-02-24T04:01:25.473Z,2.22
2023-02-24T04:04:33.096Z,2.20
2023-02-24T04:07:53.174Z,2.19
2023-02-24T04:10:59.654Z,2.15
2023-02-24T04:14:08.065Z,2.14
2023-02-24T04:17:14.144Z,2.11
2023-02-24T04:20:20.426Z,2.13
2023-02-24T04:23:38.636Z,2.08
2023-02-24T04:26:41.311Z,2.07
2023-02-24T04:29:47.294Z,2.06
2023-02-24T04:32:51.020Z,2.05
2023-02-24T04:35:53.488Z,1.98
2023-02-24T04:39:00.295Z,2.00
2023-02-24T04:42:01.920Z,1.99
2023-02-24T04:45:09.960Z,1.90
2023-02-24T04:48:14.387Z,1.83
2023-02-24T04:51:16.017Z,1.84
2023-02-24T04:54:19.635Z,1.84
2023-02-24T04:57:21.410Z,1.79
2023-02-24T05:00:26.501Z,1.73
2023-02-24T05:03:30.184Z,1.71
2023-02-24T05:06:32.094Z,1.68
2023-02-24T05:09:35.011Z,1.63
2023-02-24T05:12:39.982Z,1.58
2023-02-24T05:15:42.643Z,1.49
2023-02-24T05:18:47.512Z,1.43
2023-02-24T05:21:49.096Z,1.36
2023-02-24T05:24:52.201Z,1.30
2023-02-24T05:27:53.859Z,1.26
2023-02-24T05:30:56.361Z,1.19
2023-02-24T05:33:58.898Z,1.16
2023-02-24T05:37:01.868Z,1.11
2023-02-24T05:40:05.319Z,1.08
2023-02-24T05:43:06.901Z,1.09
2023-02-24T05:46:08.578Z,1.05
2023-02-24T05:49:14.465Z,1.04
2023-02-24T05:52:16.064Z,1.02
2023-02-24T05:55:19.011Z,1.02
2023-02-24T05:58:21.003Z,1.00
2023-02-24T06:01:22.843Z,1.02
2023-02-24T06:04:39.841Z,1.04
2023-02-24T06:07:43.192Z,1.07
2023-02-24T06:10:47.398Z,1.05
2023-02-24T06:13:49.191Z,1.07
2023-02-24T06:16:51.070Z,1.05
2023-02-24T06:19:55.917Z,1.05
2023-02-24T06:22:58.414Z,1.04
2023-02-24T06:26:04.748Z,1.04
2023-02-24T06:29:06.473Z,1.04
2023-02-24T06:32:11.168Z,1.03
2023-02-24T06:35:12.801Z,1.01
2023-02-24T06:38:17.166Z,0.99
2023-02-24T06:41:20.601Z,1.01
2023-02-24T06:44:24.446Z,1.00
2023-02-24T06:47:27.038Z,1.00
2023-02-24T06:50:28.997Z,0.98
2023-02-24T06:53:31.815Z,0.97
2023-02-24T06:56:38.766Z,0.97
2023-02-24T06:59:41.245Z,0.98
2023-02-24T07:02:42.852Z,1.01
2023-02-24T07:05:50.208Z,1.01
2023-02-24T07:08:52.858Z,1.00
2023-02-24T07:11:56.803Z,1.02
2023-02-24T07:14:59.040Z,1.02
2023-02-24T07:18:00.713Z,1.02
2023-02-24T07:21:05.317Z,1.06
2023-02-24T07:24:07.268Z,1.05
2023-02-24T07:27:12.089Z,1.10
2023-02-24T07:30:15.798Z,1.11
2023-02-24T07:33:19.370Z,1.14
2023-02-24T07:36:23.483Z,1.14
2023-02-24T07:39:25.853Z,1.17
2023-02-24T07:42:30.731Z,1.16
2023-02-24T07:45:32.321Z,1.17
2023-02-24T07:48:34.986Z,1.20
2023-02-24T07:51:38.931Z,1.24
2023-02-24T07:54:40.616Z,1.21
2023-02-24T07:57:46.668Z,1.17
2023-02-24T08:00:59.709Z,1.20
2023-02-24T08:04:01.480Z,1.25
2023-02-24T08:07:04.218Z,1.26
2023-02-24T08:10:10.578Z,1.26
2023-02-24T08:13:13.483Z,1.23
2023-02-24T08:16:15.122Z,1.24
2023-02-24T08:19:21.100Z,1.28
2023-02-24T08:22:25.883Z,1.30
2023-02-24T08:25:37.192Z,1.29
2023-02-24T08:28:40.606Z,1.30
2023-02-24T08:31:43.349Z,1.27
2023-02-24T08:34:45.434Z,1.31
2023-02-24T08:37:48.087Z,1.30
2023-02-24T08:40:51.331Z,1.35
2023-02-24T08:43:55.576Z,1.32
2023-02-24T08:46:58.041Z,1.34
2023-02-24T08:49:59.977Z,1.34
2023-02-24T08:53:01.565Z,1.34
2023-02-24T08:56:09.808Z,1.31
2023-02-24T08:59:32.400Z,1.32
2023-02-24T09:02:40.370Z,1.33
2023-02-24T09:05:42.235Z,1.32
2023-02-24T09:08:45.480Z,1.32
2023-02-24T09:11:48.165Z,1.25
2023-02-24T09:14:55.365Z,1.18
2023-02-24T09:18:07.397Z,1.13
2023-02-24T09:21:36.600Z,1.02
2023-02-24T09:24:38.305Z,0.94
2023-02-24T09:27:42.389Z,0.92
2023-02-24T09:30:53.606Z,0.85
2023-02-24T09:33:55.444Z,0.80
2023-02-24T09:37:03.553Z,0.79
2023-02-24T09:40:20.882Z,0.75
2023-02-24T09:43:24.665Z,0.74
2023-02-24T09:46:27.947Z,0.67
2023-02-24T09:49:40.040Z,0.65
2023-02-24T09:52:42.097Z,0.67
2023-02-24T09:56:00.668Z,0.66
2023-02-24T09:59:11.577Z,0.68
2023-02-24T10:13:13.789Z,0.64
2023-02-24T10:16:16.803Z,0.63
2023-02-24T10:19:24.256Z,0.63
2023-02-24T10:22:40.588Z,0.62
2023-02-24T10:25:53.882Z,0.65
2023-02-24T10:29:02.650Z,0.63
2023-02-24T10:32:17.134Z,0.61
2023-02-24T10:35:19.552Z,0.63
2023-02-24T10:38:21.635Z,0.65
2023-02-24T10:41:29.306Z,0.67
2023-02-24T10:44:36.506Z,0.67
2023-02-24T10:47:44.418Z,0.67
2023-02-24T10:50:55.711Z,0.65
2023-02-24T10:54:27.455Z,0.66
2023-02-24T10:57:44.779Z,0.66
2023-02-24T11:01:13.198Z,0.71
2023-02-24T11:04:38.944Z,0.70
2023-02-24T11:07:53.949Z,0.69
2023-02-24T11:11:07.070Z,0.65
2023-02-24T11:14:35.830Z,0.64
2023-02-24T11:17:46.209Z,0.64
2023-02-24T11:20:50.385Z,0.63
2023-02-24T11:23:53.394Z,0.62
2023-02-24T11:26:55.207Z,0.57
2023-02-24T11:30:06.462Z,0.51
2023-02-24T11:33:26.148Z,0.53
2023-02-24T11:36:34.734Z,0.52
2023-02-24T11:39:50.526Z,0.56
2023-02-24T11:42:53.591Z,0.53
2023-02-24T11:46:01.038Z,0.50
2023-02-24T11:49:08.751Z,0.46
2023-02-24T11:52:14.339Z,0.45
2023-02-24T11:55:22.617Z,0.46
2023-02-24T11:58:27.337Z,0.43
2023-02-24T12:01:31.286Z,0.43
2023-02-24T12:04:36.330Z,0.38
2023-02-24T12:07:39.989Z,0.38
2023-02-24T12:10:47.643Z,0.39
2023-02-24T12:13:53.016Z,0.39
2023-02-24T12:16:59.403Z,0.38
2023-02-24T12:20:07.328Z,0.39
2023-02-24T12:23:15.927Z,0.36
2023-02-24T12:26:18.861Z,0.38
2023-02-24T12:29:32.563Z,0.38
2023-02-24T12:32:50.803Z,0.42
2023-02-24T12:35:59.601Z,0.42
2023-02-24T12:39:10.377Z,0.41
2023-02-24T12:42:18.377Z,0.44
2023-02-24T12:45:31.370Z,0.43
2023-02-24T12:49:00.269Z,0.43
2023-02-24T12:52:10.517Z,0.48
2023-02-24T12:55:18.742Z,0.44
2023-02-24T12:58:22.417Z,0.45
2023-02-24T13:01:27.458Z,0.45
2023-02-24T13:04:46.884Z,0.47
2023-02-24T13:07:59.392Z,0.46
2023-02-24T13:11:04.924Z,0.47
2023-02-24T13:14:12.698Z,0.43
2023-02-24T13:17:20.154Z,0.40
2023-02-24T13:20:26.743Z,0.42
2023-02-24T13:23:31.749Z,0.45
2023-02-24T13:26:33.503Z,0.44
2023-02-24T13:29:45.575Z,0.42
2023-02-24T13:32:47.805Z,0.41
2023-02-24T13:35:50.411Z,0.39
2023-02-24T13:39:04.384Z,0.42
2023-02-24T13:42:20.402Z,0.46
2023-02-24T13:45:22.271Z,0.50
2023-02-24T13:48:47.902Z,0.51
2023-02-24T13:51:54.828Z,0.52
2023-02-24T13:55:08.715Z,0.53
2023-02-24T13:58:20.509Z,0.58
2023-02-24T14:01:23.390Z,0.63
2023-02-24T14:04:29.298Z,0.66
2023-02-24T14:07:34.173Z,0.66
2023-02-24T14:10:38.934Z,0.70
2023-02-24T14:13:44.865Z,0.71
2023-02-24T14:16:49.793Z,0.73
2023-02-24T14:19:51.810Z,0.73
2023-02-24T14:22:54.775Z,0.75
2023-02-24T14:25:59.271Z,0.77
2023-02-24T14:29:01.641Z,0.78
2023-02-24T14:32:04.615Z,0.82
2023-02-24T14:35:06.601Z,0.88
2023-02-24T14:38:27.294Z,0.88
2023-02-24T14:41:30.316Z,0.89
2023-02-24T14:44:41.741Z,0.92
2023-02-24T14:47:43.531Z,0.99
2023-02-24T14:50:45.122Z,1.00
2023-02-24T14:53:50.253Z,0.99
2023-02-24T14:56:53.884Z,1.00
2023-02-24T14:59:57.189Z,1.02
2023-02-24T15:03:05.803Z,1.05
2023-02-24T15:06:11.795Z,1.08
2023-02-24T15:09:15.835Z,1.09
2023-02-24T15:12:23.263Z,1.12
2023-02-24T15:15:29.351Z,1.14
2023-02-24T15:18:31.240Z,1.15
2023-02-24T15:21:34.713Z,1.16
2023-02-24T15:24:39.346Z,1.15
2023-02-24T15:27:50.929Z,1.13
2023-02-24T15:30:56.967Z,1.11
2023-02-24T15:34:00.440Z,1.12
2023-02-24T15:37:04.630Z,1.09
2023-02-24T15:40:12.833Z,1.12
2023-02-24T15:43:30.652Z,1.20
2023-02-24T15:46:33.435Z,1.27
2023-02-24T15:49:35.272Z,1.30
2023-02-24T15:52:38.328Z,1.33
2023-02-24T15:55:41.399Z,1.38
2023-02-24T15:58:44.830Z,1.40
2023-02-24T16:01:46.682Z,1.39
2023-02-24T16:04:49.071Z,1.40
2023-02-24T16:07:50.867Z,1.39
2023-02-24T16:10:53.919Z,1.38
2023-02-24T16:13:58.441Z,1.42
2023-02-24T16:17:02.239Z,1.49
2023-02-24T16:20:09.209Z,1.53
2023-02-24T16:23:10.728Z,1.58
2023-02-24T16:26:15.332Z,1.66
2023-02-24T16:29:18.512Z,1.69
2023-02-24T16:32:23.788Z,1.70
2023-02-24T16:35:26.428Z,1.73
2023-02-24T16:38:28.104Z,1.76
2023-02-24T16:41:31.192Z,1.77
2023-02-24T16:44:34.236Z,1.78
2023-02-24T16:47:35.980Z,1.79
2023-02-24T16:50:39.761Z,1.82
2023-02-24T16:53:42.010Z,1.82
2023-02-24T16:56:45.228Z,1.84
2023-02-24T16:59:48.187Z,1.90
2023-02-24T17:02:50.238Z,1.93
2023-02-24T17:05:52.011Z,1.95
2023-02-24T17:08:53.817Z,1.97
2023-02-24T17:11:55.709Z,1.98
2023-02-24T17:14:59.396Z,2.01
2023-02-24T17:18:01.086Z,2.03
2023-02-24T17:21:03.490Z,2.06
2023-02-24T17:24:05.440Z,2.09
2023-02-24T17:27:07.872Z,2.09
2023-02-24T17:30:12.748Z,2.07
2023-02-24T17:33:14.810Z,2.11
2023-02-24T17:36:16.515Z,2.14
2023-02-24T17:39:18.094Z,2.16
2023-02-24T17:42:19.687Z,2.17
2023-02-24T17:45:22.792Z,2.20
2023-02-24T17:48:25.475Z,2.19
2023-02-24T17:51:27.922Z,2.14
2023-02-24T17:54:29.672Z,2.11
2023-02-24T17:57:34.157Z,2.04
2023-02-24T18:00:38.546Z,2.03
2023-02-24T18:03:40.186Z,2.00
2023-02-24T18:06:41.994Z,1.96
2023-02-24T18:09:43.577Z,1.96
2023-02-24T18:12:45.257Z,1.97
2023-02-24T18:15:48.385Z,1.99
2023-02-24T18:18:50.028Z,2.01
2023-02-24T18:21:51.759Z,1.99
2023-02-24T18:24:53.328Z,1.94
2023-02-24T18:27:54.895Z,1.95
2023-02-24T18:30:58.352Z,2.00
2023-02-24T18:34:00.482Z,2.05
2023-02-24T18:37:02.401Z,2.10
2023-02-24T18:40:04.439Z,2.14
2023-02-24T18:43:06.058Z,2.20
2023-02-24T18:46:11.214Z,2.25
2023-02-24T18:49:13.486Z,2.30
2023-02-24T18:52:15.061Z,2.35
2023-02-24T18:55:17.978Z,2.37
2023-02-24T18:58:19.559Z,2.38
2023-02-24T19:01:25.797Z,2.39
2023-02-24T19:04:27.693Z,2.41
2023-02-24T19:07:29.320Z,2.37
2023-02-24T19:10:30.984Z,2.38
2023-02-24T19:13:32.615Z,2.39
2023-02-24T19:16:36.451Z,2.39
2023-02-24T19:19:38.558Z,2.38
2023-02-24T19:22:40.274Z,2.39
2023-02-24T19:25:41.932Z,2.38
2023-02-24T19:28:43.708Z,2.36
2023-02-24T19:31:47.263Z,2.33
2023-02-24T19:34:49.139Z,2.32
2023-02-24T19:37:50.877Z,2.29
2023-02-24T19:40:52.569Z,2.28
2023-02-24T19:43:54.270Z,2.26
2023-02-24T19:46:57.211Z,2.23
2023-02-24T19:49:58.929Z,2.24
2023-02-24T19:53:00.545Z,2.22
2023-02-24T19:56:02.555Z,2.19
2023-02-24T19:59:05.389Z,2.20
2023-02-24T20:02:09.713Z,2.18
2023-02-24T20:05:11.586Z,2.17
2023-02-24T20:08:13.439Z,2.16
2023-02-24T20:11:15.197Z,2.16
2023-02-24T20:14:17.733Z,2.16
2023-02-24T20:17:20.780Z,2.15
2023-02-24T20:20:22.639Z,2.17
2023-02-24T20:23:24.614Z,2.14
2023-02-24T20:26:26.875Z,2.15
2023-02-24T20:29:29.508Z,2.15
2023-02-24T20:32:32.770Z,2.15
2023-02-24T20:35:39.899Z,2.16
2023-02-24T20:38:41.919Z,2.15
2023-02-24T20:41:44.148Z,2.17
2023-02-24T20:44:45.794Z,2.17
2023-02-24T20:47:49.098Z,2.19
2023-02-24T20:50:50.960Z,2.19
2023-02-24T20:53:57.685Z,2.18
2023-02-24T20:57:00.292Z,2.16
2023-02-24T21:00:07.368Z,2.16
2023-02-24T21:03:12.444Z,2.14
2023-02-24T21:06:16.207Z,2.14
2023-02-24T21:09:18.171Z,2.11
2023-02-24T21:12:19.991Z,2.11
2023-02-24T21:15:21.882Z,2.10
2023-02-24T21:18:25.175Z,2.08
2023-02-24T21:21:27.004Z,2.09
2023-02-24T21:24:30.586Z,2.07
2023-02-24T21:27:32.189Z,2.06
2023-02-24T21:30:33.847Z,2.06
2023-02-24T21:33:36.916Z,2.04
2023-02-24T21:36:38.491Z,2.06
2023-02-24T21:39:40.154Z,2.04
2023-02-24T21:42:46.772Z,2.03
2023-02-24T21:45:48.381Z,2.03
2023-02-24T21:48:54.466Z,2.04
2023-02-24T21:51:56.056Z,2.03
2023-02-24T21:54:57.973Z,2.03
2023-02-24T21:57:59.582Z,2.03
2023-02-24T22:01:01.856Z,2.01
2023-02-24T22:04:06.048Z,1.94
2023-02-24T22:07:07.642Z,1.93
2023-02-24T22:10:10.229Z,1.89
2023-02-24T22:13:11.889Z,1.86
2023-02-24T22:16:14.878Z,1.87
2023-02-24T22:19:19.894Z,1.86
2023-02-24T22:22:21.469Z,1.87
2023-02-24T22:25:23.031Z,1.86
2023-02-24T22:28:25.325Z,1.86
2023-02-24T22:31:27.872Z,1.84
2023-02-24T22:34:32.805Z,1.84
2023-02-24T22:37:34.761Z,1.80
2023-02-24T22:40:37.306Z,1.74
2023-02-24T22:43:39.040Z,1.73
2023-02-24T22:46:40.638Z,1.74
2023-02-24T22:49:43.909Z,1.77
2023-02-24T22:52:45.761Z,1.79
2023-02-24T22:55:47.644Z,1.77
2023-02-24T22:58:49.913Z,1.78
2023-02-24T23:01:51.541Z,1.80
2023-02-24T23:04:54.510Z,1.78
2023-02-24T23:07:56.012Z,1.74
2023-02-24T23:11:03.903Z,1.74
2023-02-24T23:14:06.824Z,1.75
2023-02-24T23:17:08.693Z,1.72
2023-02-24T23:20:15.402Z,1.73
2023-02-24T23:23:17.049Z,1.69
2023-02-24T23:26:18.784Z,1.66
2023-02-24T23:29:21.554Z,1.65
2023-02-24T23:32:23.287Z,1.62
2023-02-24T23:35:26.532Z,1.60
2023-02-24T23:38:28.151Z,1.58
2023-02-24T23:41:29.862Z,1.58
2023-02-24T23:44:31.950Z,1.57
2023-02-24T23:47:33.565Z,1.57
2023-02-24T23:50:37.800Z,1.56
2023-02-24T23:53:40.099Z,1.57
2023-02-24T23:56:41.908Z,1.58
2023-02-24T23:59:43.589Z,1.59
